Time;durP1;ratioP1;P1;durP2;ratioP2;P2;SDS_P1;SDS_P2;PMS_P1;PMS_P2;Temp;Humidity;BMP_temperature;BMP_pressure;BME280_temperature;BME280_humidity;BME280_pressure;Samples;Min_cycle;Max_cycle;Signal;HPM_P1;HPM_P2
2023/07/21 00:00:27;;;;;;;5.70;3.40;;;;;;;12.73;90.47;100173.76;78818;279;3028182;-70
2023/07/21 00:03:22;;;;;;;6.00;3.40;;;;;;;12.75;90.44;100171.20;78834;279;3027297;-70
2023/07/21 00:05:58;;;;;;;5.40;3.30;;;;;;;12.74;90.12;100172.82;78836;279;3027694;-74
2023/07/21 00:08:34;;;;;;;3.60;3.10;;;;;;;12.74;90.21;100172.66;79553;279;3011550;-74
2023/07/21 00:11:09;;;;;;;5.70;3.40;;;;;;;12.72;90.11;100164.34;78862;279;3028808;-70
2023/07/21 00:13:46;;;;;;;4.40;3.20;;;;;;;12.70;89.92;100165.86;78833;279;3027531;-70
2023/07/21 00:16:22;;;;;;;5.00;3.50;;;;;;;12.67;89.96;100166.52;78819;279;3029001;-70
2023/07/21 00:18:58;;;;;;;4.60;2.80;;;;;;;12.66;89.98;100169.73;78821;279;3028355;-70
2023/07/21 00:21:34;;;;;;;5.30;3.20;;;;;;;12.63;89.76;100168.31;78896;279;3027218;-70
2023/07/21 00:24:11;;;;;;;4.40;3.00;;;;;;;12.58;89.63;100165.06;78831;279;3027616;-70
2023/07/21 00:26:48;;;;;;;5.10;3.10;;;;;;;12.55;89.59;100162.77;78824;279;3028175;-70
2023/07/21 00:29:25;;;;;;;4.00;2.80;;;;;;;12.51;89.59;100160.49;78830;279;3029862;-71
2023/07/21 00:32:02;;;;;;;5.40;3.00;;;;;;;12.47;89.43;100163.84;78880;279;3027784;-74
2023/07/21 00:34:39;;;;;;;4.10;3.30;;;;;;;12.42;89.46;100159.16;78825;279;3027727;-74
2023/07/21 00:37:15;;;;;;;4.70;3.10;;;;;;;12.40;89.65;100162.08;78830;279;3028786;-74
2023/07/21 00:39:51;;;;;;;4.20;3.00;;;;;;;12.36;89.60;100154.56;78853;279;3028519;-71
2023/07/21 00:42:27;;;;;;;6.20;3.10;;;;;;;12.34;89.76;100147.84;78811;279;3027023;-71
2023/07/21 00:45:03;;;;;;;5.60;2.80;;;;;;;12.34;89.99;100152.59;78846;279;3026998;-71
2023/07/21 00:47:38;;;;;;;3.60;2.90;;;;;;;12.33;90.13;100153.66;78837;279;3027688;-71
2023/07/21 00:50:14;;;;;;;4.90;3.60;;;;;;;12.34;90.33;100154.15;78871;279;3030705;-72
2023/07/21 00:52:50;;;;;;;3.30;3.00;;;;;;;12.35;90.43;100155.33;78843;279;3026232;-74
2023/07/21 00:55:26;;;;;;;3.70;2.70;;;;;;;12.36;90.79;100151.27;78840;279;3028651;-70
2023/07/21 00:58:01;;;;;;;4.10;2.80;;;;;;;12.37;90.76;100145.96;78817;279;3028305;-70
2023/07/21 01:00:38;;;;;;;4.50;3.00;;;;;;;12.35;90.81;100146.22;78809;279;3027708;-70
2023/07/21 01:03:14;;;;;;;3.40;3.10;;;;;;;12.37;90.96;100141.58;78846;279;3028551;-70
2023/07/21 01:05:50;;;;;;;4.20;2.70;;;;;;;12.40;90.92;100140.23;78847;279;3028282;-71
2023/07/21 01:08:25;;;;;;;4.20;3.10;;;;;;;12.39;90.51;100141.48;78838;279;3027567;-71
2023/07/21 01:11:01;;;;;;;5.30;3.20;;;;;;;12.36;90.23;100142.31;78824;279;3028412;-73
2023/07/21 01:13:37;;;;;;;3.10;2.80;;;;;;;12.32;90.16;100139.92;78868;279;3027012;-74
2023/07/21 01:16:12;;;;;;;3.60;2.90;;;;;;;12.27;90.09;100143.65;78853;279;3027011;-70
2023/07/21 01:18:48;;;;;;;4.60;2.80;;;;;;;12.25;90.10;100139.74;79567;279;3011442;-70
2023/07/21 01:21:30;;;;;;;3.70;2.60;;;;;;;12.22;90.15;100140.96;79613;279;3011420;-74
2023/07/21 01:24:11;;;;;;;4.90;3.00;;;;;;;12.19;90.23;100140.22;78836;279;3027328;-74
2023/07/21 01:26:48;;;;;;;3.00;2.80;;;;;;;12.17;90.60;100137.30;78857;279;3029179;-71
2023/07/21 01:29:24;;;;;;;6.30;2.70;;;;;;;12.17;90.70;100142.05;78825;279;3028608;-71
2023/07/21 01:32:00;;;;;;;7.50;2.90;;;;;;;12.15;90.59;100145.27;78888;279;3027089;-74
2023/07/21 01:34:38;;;;;;;3.20;2.70;;;;;;;12.17;91.06;100142.23;78861;279;3027434;-74
2023/07/21 01:37:14;;;;;;;3.40;2.80;;;;;;;12.20;91.00;100143.81;78843;279;3027267;-73
2023/07/21 01:39:50;;;;;;;3.70;2.70;;;;;;;12.22;90.92;100146.69;78856;279;3027588;-72
2023/07/21 01:42:29;;;;;;;5.30;3.30;;;;;;;12.22;90.91;100150.20;78849;279;3027364;-73
2023/07/21 01:45:07;;;;;;;3.40;3.00;;;;;;;12.21;90.94;100150.08;78842;279;3027540;-73
2023/07/21 01:47:47;;;;;;;4.30;3.20;;;;;;;12.17;90.45;100147.79;78797;279;3027107;-74
2023/07/21 01:50:22;;;;;;;5.80;4.30;;;;;;;12.13;90.35;100147.67;78851;279;3027713;-74
2023/07/21 01:52:58;;;;;;;5.00;3.80;;;;;;;12.10;90.50;100151.98;78832;280;3028855;-74
2023/07/21 01:55:37;;;;;;;4.60;3.60;;;;;;;12.10;90.43;100152.17;78874;279;3026966;-71
2023/07/21 01:58:12;;;;;;;4.10;3.60;;;;;;;12.09;90.18;100160.27;78865;268;3028928;-71
2023/07/21 02:00:48;;;;;;;3.60;3.30;;;;;;;12.05;90.25;100161.17;79607;279;3011594;-74
2023/07/21 02:03:24;;;;;;;5.30;3.60;;;;;;;12.00;90.13;100160.53;79577;279;3013173;-73
2023/07/21 02:06:01;;;;;;;5.00;3.00;;;;;;;11.94;90.29;100161.13;78861;279;3026833;-73
2023/07/21 02:08:39;;;;;;;4.70;3.40;;;;;;;11.92;90.49;100166.83;78830;279;3027116;-74
2023/07/21 02:11:14;;;;;;;4.10;3.50;;;;;;;11.93;90.74;100164.72;78830;279;3027162;-74
2023/07/21 02:13:51;;;;;;;4.70;3.60;;;;;;;11.94;90.85;100168.15;79611;279;3013480;-74
2023/07/21 02:16:26;;;;;;;4.60;3.70;;;;;;;11.95;90.99;100168.63;78875;279;3029142;-73
2023/07/21 02:19:01;;;;;;;4.40;4.00;;;;;;;11.97;91.32;100167.13;78843;279;3027364;-74
2023/07/21 02:21:38;;;;;;;4.90;3.70;;;;;;;11.98;91.38;100163.75;79638;268;3012599;-74
2023/07/21 02:24:13;;;;;;;3.90;3.50;;;;;;;11.99;91.56;100165.65;78874;279;3027813;-74
2023/07/21 02:26:50;;;;;;;4.30;3.40;;;;;;;12.01;91.71;100163.11;79600;279;3013220;-75
2023/07/21 02:29:27;;;;;;;3.70;3.20;;;;;;;12.04;91.52;100164.01;78854;279;3028181;-75
2023/07/21 02:32:02;;;;;;;3.50;3.10;;;;;;;12.05;91.78;100162.88;78837;279;3028551;-71
2023/07/21 02:34:42;;;;;;;4.40;3.60;;;;;;;12.07;91.67;100167.51;78871;279;3027530;-71
2023/07/21 02:37:17;;;;;;;4.00;3.60;;;;;;;12.08;91.45;100170.45;78875;279;3027248;-74
2023/07/21 02:39:53;;;;;;;6.60;3.80;;;;;;;12.06;91.39;100172.63;79588;279;3011388;-71
2023/07/21 02:42:29;;;;;;;4.10;3.40;;;;;;;12.03;91.10;100175.57;79612;279;3011529;-70
2023/07/21 02:45:07;;;;;;;3.70;3.40;;;;;;;12.00;91.14;100179.05;79596;279;3011585;-72
2023/07/21 02:47:42;;;;;;;3.60;3.20;;;;;;;11.99;91.23;100176.31;78872;279;3027080;-74
2023/07/21 02:50:18;;;;;;;4.10;3.20;;;;;;;12.00;91.26;100176.61;79613;279;3011608;-75
2023/07/21 02:52:55;;;;;;;4.20;3.70;;;;;;;12.01;91.43;100173.92;79610;279;3011422;-74
2023/07/21 02:55:34;;;;;;;4.60;3.70;;;;;;;12.03;91.43;100170.71;79640;279;3012967;-68
2023/07/21 02:58:14;;;;;;;6.20;3.60;;;;;;;12.04;91.60;100172.38;78804;281;3026969;-71
2023/07/21 03:00:54;;;;;;;3.60;3.30;;;;;;;12.04;91.54;100172.02;78858;279;3026866;-73
2023/07/21 03:03:29;;;;;;;6.30;3.70;;;;;;;12.08;91.53;100172.70;78851;279;3029607;-74
2023/07/21 03:06:08;;;;;;;4.10;3.40;;;;;;;12.10;91.34;100172.48;78891;279;3026785;-74
2023/07/21 03:08:43;;;;;;;4.40;3.90;;;;;;;12.09;91.29;100170.23;78883;279;3028128;-74
2023/07/21 03:11:21;;;;;;;4.50;4.10;;;;;;;12.06;91.11;100166.52;79593;279;3011520;-74
2023/07/21 03:13:56;;;;;;;3.60;3.30;;;;;;;12.05;91.21;100166.41;78819;280;3027460;-73
2023/07/21 03:16:32;;;;;;;4.20;3.80;;;;;;;12.03;91.22;100164.89;78871;279;3027994;-73
2023/07/21 03:19:08;;;;;;;4.00;3.50;;;;;;;12.01;91.18;100163.61;79575;280;3011727;-73
2023/07/21 03:21:44;;;;;;;3.70;3.30;;;;;;;12.00;91.32;100159.80;79624;279;3013002;-71
2023/07/21 03:24:19;;;;;;;5.00;3.90;;;;;;;12.02;91.60;100165.66;78853;279;3026902;-71
2023/07/21 03:26:56;;;;;;;3.60;3.30;;;;;;;12.04;91.79;100169.42;79608;279;3013754;-71
2023/07/21 03:29:32;;;;;;;4.80;3.80;;;;;;;12.06;91.87;100172.10;79599;279;3011457;-71
2023/07/21 03:32:12;;;;;;;6.50;3.90;;;;;;;12.09;92.14;100175.43;78911;279;3027292;-73
2023/07/21 03:34:52;;;;;;;4.30;3.70;;;;;;;12.18;92.30;100175.79;78902;279;3028892;-71
2023/07/21 03:37:30;;;;;;;6.30;4.00;;;;;;;12.22;92.40;100170.84;78833;279;3027202;-71
2023/07/21 03:40:10;;;;;;;4.40;3.60;;;;;;;12.26;92.52;100170.14;78889;279;3028220;-73
2023/07/21 03:42:47;;;;;;;5.00;3.40;;;;;;;12.29;92.46;100167.14;78851;279;3027791;-74
2023/07/21 03:45:23;;;;;;;5.50;3.10;;;;;;;12.34;92.48;100168.48;78855;279;3027842;-70
2023/07/21 03:47:59;;;;;;;5.30;3.60;;;;;;;12.48;92.67;100164.52;78840;279;3026884;-71
2023/07/21 03:50:35;;;;;;;3.80;3.50;;;;;;;13.11;94.90;100164.67;79578;279;3011382;-70
2023/07/21 03:53:11;;;;;;;4.50;3.20;;;;;;;14.08;96.89;100164.52;78828;279;3027064;-70
2023/07/21 03:55:46;;;;;;;5.70;2.90;;;;;;;15.06;98.05;100161.66;78838;279;3028353;-71
2023/07/21 03:58:22;;;;;;;3.40;3.10;;;;;;;16.04;95.73;100162.35;79577;279;3011436;-71
2023/07/21 04:00:59;;;;;;;3.20;2.90;;;;;;;16.93;92.23;100158.05;78867;279;3027804;-73
2023/07/21 04:03:34;;;;;;;4.10;3.30;;;;;;;17.73;88.59;100156.61;78832;279;3028186;-74
2023/07/21 04:06:10;;;;;;;3.80;3.20;;;;;;;18.43;85.81;100156.47;78841;279;3028597;-73
2023/07/21 04:08:45;;;;;;;3.30;3.10;;;;;;;19.04;80.78;100155.99;78843;279;3028543;-73
2023/07/21 04:11:21;;;;;;;3.60;3.30;;;;;;;19.55;78.31;100158.55;79592;279;3011555;-74
2023/07/21 04:13:59;;;;;;;3.20;3.00;;;;;;;19.75;76.25;100155.60;79588;279;3011631;-73
2023/07/21 04:16:35;;;;;;;3.50;3.20;;;;;;;19.49;75.15;100157.20;78882;279;3028356;-73
2023/07/21 04:19:11;;;;;;;3.80;3.50;;;;;;;19.15;74.08;100156.85;78844;279;3028372;-73
2023/07/21 04:21:46;;;;;;;4.20;3.60;;;;;;;18.78;73.89;100157.73;78835;271;3027233;-73
2023/07/21 04:24:22;;;;;;;4.60;4.00;;;;;;;18.38;73.77;100160.39;78801;279;3027045;-74
2023/07/21 04:26:57;;;;;;;6.20;4.50;;;;;;;18.04;74.24;100163.88;78862;279;3027061;-74
2023/07/21 04:29:33;;;;;;;5.20;3.70;;;;;;;17.96;74.81;100165.33;79612;279;3011577;-74
2023/07/21 04:32:09;;;;;;;4.00;3.60;;;;;;;18.23;75.21;100166.26;78854;279;3027816;-71
2023/07/21 04:34:45;;;;;;;4.80;3.10;;;;;;;18.79;75.05;100167.96;78824;279;3027413;-71
2023/07/21 04:37:20;;;;;;;3.70;3.20;;;;;;;19.14;74.15;100163.33;78686;281;3029945;-71
2023/07/21 04:39:57;;;;;;;3.50;3.20;;;;;;;19.13;72.51;100164.31;79617;279;3011433;-73
2023/07/21 04:42:33;;;;;;;4.30;3.40;;;;;;;18.90;71.79;100165.36;79553;279;3011442;-74
2023/07/21 04:45:12;;;;;;;4.90;3.60;;;;;;;18.61;71.97;100165.91;78817;279;3028984;-71
2023/07/21 04:47:49;;;;;;;7.30;4.20;;;;;;;18.34;72.82;100166.14;78830;279;3027853;-71
2023/07/21 04:50:24;;;;;;;3.60;3.30;;;;;;;18.14;73.44;100170.42;78843;279;3028484;-70
2023/07/21 04:53:01;;;;;;;5.10;3.50;;;;;;;17.99;74.20;100168.51;79601;279;3013354;-70
2023/07/21 04:55:38;;;;;;;5.60;3.40;;;;;;;17.87;75.18;100170.05;78887;279;3027738;-71
2023/07/21 04:58:13;;;;;;;4.20;3.30;;;;;;;17.84;75.89;100170.50;78798;273;3028294;-71
2023/07/21 05:00:49;;;;;;;4.00;3.50;;;;;;;17.87;76.04;100171.16;78833;279;3027309;-73
2023/07/21 05:03:24;;;;;;;3.90;3.60;;;;;;;18.25;76.77;100168.95;78854;279;3027798;-74
2023/07/21 05:06:02;;;;;;;3.80;3.20;;;;;;;19.17;77.58;100166.40;78805;280;3027570;-70
2023/07/21 05:08:37;;;;;;;5.30;3.00;;;;;;;20.24;75.44;100164.16;78849;279;3026894;-70
2023/07/21 05:11:14;;;;;;;3.90;2.90;;;;;;;21.27;73.29;100167.64;79599;279;3011396;-71
2023/07/21 05:13:52;;;;;;;3.90;2.90;;;;;;;22.29;70.08;100170.42;79596;279;3013202;-71
2023/07/21 05:16:28;;;;;;;3.20;2.40;;;;;;;23.05;66.14;100165.58;78861;271;3027771;-73
2023/07/21 05:19:02;;;;;;;6.10;2.70;;;;;;;23.77;63.58;100170.83;77880;272;3026802;-73
2023/07/21 05:21:40;;;;;;;4.50;3.30;;;;;;;24.49;62.49;100168.98;78840;279;3027055;-71
2023/07/21 05:24:15;;;;;;;3.80;2.30;;;;;;;25.24;59.29;100169.45;78823;279;3027513;-71
2023/07/21 05:26:53;;;;;;;2.80;2.20;;;;;;;25.88;55.96;100175.15;79622;279;3011067;-71
2023/07/21 05:29:28;;;;;;;4.40;2.70;;;;;;;26.39;54.79;100173.44;78862;279;3028956;-71
2023/07/21 05:32:05;;;;;;;4.50;2.50;;;;;;;26.74;52.46;100173.98;79629;279;3013422;-73
2023/07/21 05:34:42;;;;;;;3.10;1.90;;;;;;;27.11;50.96;100174.18;78832;279;3028701;-73
2023/07/21 05:37:17;;;;;;;2.80;2.20;;;;;;;27.47;50.47;100173.38;78834;279;3028365;-72
2023/07/21 05:39:53;;;;;;;4.10;2.20;;;;;;;27.77;48.96;100173.60;79649;279;3011583;-73
2023/07/21 05:42:29;;;;;;;3.20;2.10;;;;;;;27.98;48.59;100174.01;79538;280;3011395;-74
2023/07/21 05:45:07;;;;;;;2.90;1.90;;;;;;;28.13;48.08;100170.23;79610;279;3011449;-72
2023/07/21 05:47:42;;;;;;;2.60;2.00;;;;;;;28.30;46.93;100169.81;78877;279;3028651;-72
2023/07/21 05:50:19;;;;;;;4.60;1.90;;;;;;;28.51;46.02;100170.05;79605;279;3013495;-72
2023/07/21 05:52:55;;;;;;;2.70;2.00;;;;;;;28.65;46.27;100169.24;78856;279;3028064;-72
2023/07/21 05:55:30;;;;;;;3.80;1.70;;;;;;;28.87;45.85;100171.45;78881;279;3028208;-74
2023/07/21 05:58:06;;;;;;;3.10;1.50;;;;;;;28.90;45.87;100166.78;78858;279;3026701;-75
2023/07/21 06:00:42;;;;;;;2.80;1.60;;;;;;;29.26;45.37;100164.30;78879;279;3027213;-71
2023/07/21 06:03:21;;;;;;;2.20;1.50;;;;;;;29.66;44.51;100161.39;79582;279;3011634;-71
2023/07/21 06:05:57;;;;;;;3.50;1.50;;;;;;;29.98;43.36;100163.36;78907;279;3027318;-78
2023/07/21 06:08:34;;;;;;;2.60;1.40;;;;;;;30.20;42.20;100162.23;78846;279;3028249;-78
2023/07/21 06:11:11;;;;;;;3.60;1.40;;;;;;;30.33;42.07;100163.91;78919;279;3027315;-76
2023/07/21 06:13:46;;;;;;;3.00;1.60;;;;;;;30.62;41.06;100170.38;78849;279;3027832;-75
2023/07/21 06:16:24;;;;;;;1.80;1.50;;;;;;;30.48;41.07;100168.96;79643;279;3011601;-78
2023/07/21 06:19:00;;;;;;;;;;;;;;;30.76;41.79;100168.66;78950;279;3028763;-78
2023/07/21 06:21:35;;;;;;;2.20;1.60;;;;;;;30.62;40.46;100169.65;78907;279;3027351;-74
2023/07/21 06:24:11;;;;;;;3.70;1.60;;;;;;;30.17;40.90;100171.36;78878;279;3027071;-73
2023/07/21 06:26:49;;;;;;;3.20;1.50;;;;;;;30.15;40.74;100167.73;78922;279;3026912;-75
2023/07/21 06:29:28;;;;;;;2.50;1.60;;;;;;;29.96;40.64;100165.05;78813;279;3027476;-75
2023/07/21 06:32:04;;;;;;;2.60;1.40;;;;;;;30.08;41.78;100165.63;78825;280;3027528;-75
2023/07/21 06:34:42;;;;;;;3.70;1.40;;;;;;;30.32;40.80;100163.06;78898;279;3027523;-76
2023/07/21 06:37:22;;;;;;;1.80;1.20;;;;;;;30.73;40.47;100164.69;78942;279;3028025;-71
2023/07/21 06:39:57;;;;;;;2.40;1.30;;;;;;;31.27;40.07;100161.60;78933;279;3028160;-71
2023/07/21 06:42:33;;;;;;;3.00;1.30;;;;;;;31.75;38.93;100163.50;78888;279;3026768;-71
2023/07/21 06:45:13;;;;;;;1.80;1.50;;;;;;;32.11;38.22;100159.42;78879;279;3027367;-71
2023/07/21 06:47:48;;;;;;;2.00;1.30;;;;;;;32.35;37.17;100160.17;78893;279;3028654;-70
2023/07/21 06:50:26;;;;;;;2.40;1.50;;;;;;;32.69;36.42;100162.85;78887;271;3028070;-71
2023/07/21 06:53:04;;;;;;;1.60;1.20;;;;;;;32.96;36.57;100160.25;79627;279;3011441;-71
2023/07/21 06:55:40;;;;;;;2.80;1.50;;;;;;;33.25;35.63;100160.34;78906;279;3027143;-73
2023/07/21 06:58:16;;;;;;;1.80;1.60;;;;;;;33.36;35.13;100158.19;79623;279;3013018;-72
2023/07/21 07:00:53;;;;;;;1.50;1.30;;;;;;;33.49;34.67;100160.40;79602;279;3013032;-72
2023/07/21 07:03:29;;;;;;;2.70;1.50;;;;;;;33.57;34.05;100157.13;78864;279;3026936;-71
2023/07/21 07:06:05;;;;;;;1.50;1.30;;;;;;;33.74;33.97;100154.10;78882;279;3027522;-74
2023/07/21 07:08:41;;;;;;;3.00;1.50;;;;;;;34.06;33.45;100158.58;78883;279;3026768;-76
2023/07/21 07:11:17;;;;;;;2.50;1.20;;;;;;;34.30;32.72;100155.39;78852;279;3029741;-72
2023/07/21 07:13:54;;;;;;;1.40;1.00;;;;;;;34.60;32.24;100153.13;78889;279;3028672;-72
2023/07/21 07:16:30;;;;;;;2.90;1.10;;;;;;;34.74;31.69;100151.63;78874;275;3029107;-73
2023/07/21 07:19:06;;;;;;;2.00;1.10;;;;;;;34.70;31.73;100153.67;78833;279;3028099;-73
2023/07/21 07:21:42;;;;;;;1.80;1.10;;;;;;;34.71;31.45;100158.22;78820;268;3027216;-72
2023/07/21 07:24:19;;;;;;;2.00;0.90;;;;;;;34.90;31.15;100155.09;79591;279;3011492;-72
2023/07/21 07:26:55;;;;;;;1.50;1.30;;;;;;;35.11;30.45;100150.66;78844;279;3027699;-74
2023/07/21 07:29:31;;;;;;;2.60;1.00;;;;;;;35.23;30.73;100149.78;78821;279;3027429;-75
2023/07/21 07:32:10;;;;;;;1.90;1.00;;;;;;;35.37;30.26;100153.61;78839;279;3027404;-76
2023/07/21 07:34:45;;;;;;;2.60;1.10;;;;;;;35.62;30.33;100152.23;78873;279;3027463;-74
2023/07/21 07:37:21;;;;;;;1.10;0.90;;;;;;;35.86;29.66;100151.42;79611;279;3011539;-75
2023/07/21 07:39:56;;;;;;;3.60;1.30;;;;;;;35.84;29.01;100149.48;78848;279;3029093;-73
2023/07/21 07:42:33;;;;;;;2.70;1.00;;;;;;;35.84;29.66;100151.91;79572;279;3011634;-72
2023/07/21 07:45:10;;;;;;;2.40;1.00;;;;;;;36.12;29.50;100149.27;78840;279;3027710;-72
2023/07/21 07:47:45;;;;;;;1.80;1.10;;;;;;;36.29;29.23;100156.63;78838;279;3028365;-72
2023/07/21 07:50:21;;;;;;;0.90;0.70;;;;;;;36.52;28.69;100154.91;78848;279;3026555;-75
2023/07/21 07:52:59;;;;;;;0.90;0.80;;;;;;;36.52;27.76;100152.52;78864;279;3027414;-74
2023/07/21 07:55:38;;;;;;;1.00;0.90;;;;;;;36.63;27.66;100157.88;78825;279;3027826;-72
2023/07/21 07:58:14;;;;;;;3.30;1.10;;;;;;;36.86;27.42;100155.55;78857;279;3027780;-72
2023/07/21 08:00:50;;;;;;;1.20;0.70;;;;;;;36.89;26.86;100158.20;79610;279;3011322;-73
2023/07/21 08:03:26;;;;;;;2.20;0.90;;;;;;;36.56;26.57;100156.91;79575;279;3011483;-73
2023/07/21 08:06:02;;;;;;;1.80;1.00;;;;;;;35.40;26.99;100160.54;79559;279;3011547;-72
2023/07/21 08:08:39;;;;;;;1.40;0.80;;;;;;;34.06;28.40;100165.11;79610;279;3011541;-72
2023/07/21 08:11:15;;;;;;;1.70;1.00;;;;;;;32.89;29.52;100163.35;79596;279;3011443;-73
2023/07/21 08:13:51;;;;;;;1.60;1.00;;;;;;;31.79;31.03;100167.47;79587;279;3011494;-73
2023/07/21 08:16:27;;;;;;;1.10;0.90;;;;;;;31.24;32.65;100164.98;78802;273;3028914;-74
2023/07/21 08:19:03;;;;;;;1.50;0.90;;;;;;;30.87;32.99;100165.55;78838;279;3027934;-74
2023/07/21 08:21:39;;;;;;;3.30;0.80;;;;;;;30.48;33.85;100165.48;78860;279;3026551;-70
2023/07/21 08:24:16;;;;;;;3.30;0.90;;;;;;;30.56;34.09;100163.80;78835;279;3027150;-70
2023/07/21 08:26:52;;;;;;;2.80;0.90;;;;;;;30.23;33.97;100163.78;78877;279;3027144;-75
2023/07/21 08:29:27;;;;;;;4.90;0.70;;;;;;;29.59;34.23;100161.35;78836;279;3028334;-76
2023/07/21 08:32:05;;;;;;;3.90;0.80;;;;;;;29.00;34.64;100158.59;78870;280;3027226;-72
2023/07/21 08:34:41;;;;;;;2.30;0.90;;;;;;;28.52;35.98;100155.80;78828;279;3027387;-72
2023/07/21 08:37:17;;;;;;;1.00;0.90;;;;;;;28.15;36.73;100158.36;78862;279;3027872;-76
2023/07/21 08:39:55;;;;;;;4.20;0.90;;;;;;;27.85;36.64;100163.68;78890;279;3028967;-73
2023/07/21 08:42:30;;;;;;;2.00;0.90;;;;;;;27.69;37.54;100161.27;78859;279;3027150;-74
2023/07/21 08:45:08;;;;;;;2.20;2.00;;;;;;;27.68;38.07;100157.05;78838;279;3027575;-74
2023/07/21 08:47:44;;;;;;;0.90;0.90;;;;;;;27.61;37.77;100158.24;78853;279;3027261;-74
2023/07/21 08:50:22;;;;;;;3.50;1.00;;;;;;;27.38;37.66;100157.75;78898;279;3027402;-74
2023/07/21 08:52:58;;;;;;;1.80;1.00;;;;;;;27.17;37.60;100160.60;78894;279;3026961;-72
2023/07/21 08:55:38;;;;;;;1.50;1.00;;;;;;;27.00;38.25;100161.02;78949;279;3026616;-74
2023/07/21 08:58:20;;;;;;;1.60;0.80;;;;;;;27.20;39.34;100161.55;78952;279;3026901;-71
2023/07/21 09:00:57;;;;;;;1.90;0.80;;;;;;;28.23;37.85;100155.58;78850;279;3028082;-71
2023/07/21 09:03:44;;;;;;;1.50;0.90;;;;;;;29.26;36.69;100151.57;78882;279;3026774;-72
2023/07/21 09:06:20;;;;;;;1.00;0.80;;;;;;;30.11;34.55;100154.84;78914;279;3026575;-71
2023/07/21 09:08:57;;;;;;;0.80;0.70;;;;;;;30.50;33.46;100151.70;78864;279;3027481;-74
2023/07/21 09:11:38;;;;;;;2.30;0.60;;;;;;;30.68;33.58;100151.09;78877;280;3027037;-71
2023/07/21 09:14:15;;;;;;;1.40;0.70;;;;;;;30.60;31.98;100159.98;78904;279;3026868;-72
2023/07/21 09:16:52;;;;;;;1.90;0.60;;;;;;;30.20;32.13;100157.45;78881;279;3026719;-76
2023/07/21 09:19:28;;;;;;;2.10;0.90;;;;;;;29.65;33.04;100159.02;78892;279;3027213;-74
2023/07/21 09:22:04;;;;;;;1.30;0.80;;;;;;;29.07;33.31;100157.15;79637;273;3011335;-74
2023/07/21 09:24:55;;;;;;;1.00;0.80;;;;;;;28.58;33.88;100156.74;78929;279;3027468;-75
2023/07/21 09:27:33;;;;;;;1.90;0.80;;;;;;;28.12;34.56;100160.55;78900;279;3028545;-74
2023/07/21 09:30:11;;;;;;;1.10;0.80;;;;;;;27.95;35.08;100159.13;78898;271;3027204;-73
2023/07/21 09:32:47;;;;;;;4.50;1.30;;;;;;;27.86;35.51;100160.96;78895;279;3026738;-74
2023/07/21 09:35:22;;;;;;;1.70;0.90;;;;;;;28.08;37.06;100151.91;78909;279;3028173;-71
2023/07/21 09:38:02;;;;;;;2.20;1.20;;;;;;;28.55;37.05;100147.42;79636;279;3011416;-71
2023/07/21 09:40:43;;;;;;;1.60;1.00;;;;;;;28.93;36.20;100150.58;78882;279;3027179;-71
2023/07/21 09:43:17;;;;;;;;;;;;;;;29.16;35.25;100149.08;78881;279;3027175;-71
2023/07/21 09:45:52;;;;;;;1.70;0.80;;;;;;;29.29;35.11;100141.77;80115;279;3011321;-73
2023/07/21 09:48:27;;;;;;;1.50;0.70;;;;;;;29.51;34.33;100136.05;78875;279;3026617;-75
2023/07/21 09:51:05;;;;;;;2.40;1.10;;;;;;;29.63;33.42;100137.61;78867;279;3027276;-71
2023/07/21 09:53:44;;;;;;;0.80;0.70;;;;;;;29.81;33.45;100133.36;78900;279;3028003;-71
2023/07/21 09:56:20;;;;;;;3.40;0.90;;;;;;;29.95;32.93;100136.10;78953;279;3027400;-74
2023/07/21 09:59:02;;;;;;;3.10;1.10;;;;;;;29.70;32.00;100138.73;78946;271;3027367;-74
2023/07/21 10:01:38;;;;;;;2.60;1.00;;;;;;;29.24;32.51;100136.50;78965;279;3027152;-73
2023/07/21 10:04:14;;;;;;;2.20;0.90;;;;;;;29.08;33.45;100136.35;78928;268;3027614;-73
2023/07/21 10:06:56;;;;;;;2.10;0.90;;;;;;;29.16;33.68;100130.13;78844;280;3027521;-75
2023/07/21 10:09:32;;;;;;;2.00;0.90;;;;;;;29.31;33.75;100130.43;78944;279;3027710;-74
2023/07/21 10:12:16;;;;;;;2.10;0.80;;;;;;;29.49;33.23;100127.36;78901;279;3026724;-75
2023/07/21 10:14:54;;;;;;;1.70;0.70;;;;;;;29.65;32.31;100123.58;78873;279;3027836;-72
2023/07/21 10:17:31;;;;;;;2.00;0.70;;;;;;;29.63;31.67;100123.84;78878;279;3027479;-70
2023/07/21 10:20:17;;;;;;;1.90;0.70;;;;;;;29.63;32.20;100124.80;78906;279;3026525;-73
2023/07/21 10:23:01;;;;;;;4.20;1.10;;;;;;;29.70;31.24;100120.11;78890;279;3027282;-72
2023/07/21 10:25:56;;;;;;;1.50;0.70;;;;;;;29.76;31.23;100118.14;78888;279;3027320;-71
2023/07/21 10:28:43;;;;;;;3.80;0.80;;;;;;;29.88;31.99;100118.84;78900;279;3026566;-72
2023/07/21 10:31:38;;;;;;;2.50;0.70;;;;;;;29.88;30.19;100116.01;78921;279;3028986;-71
2023/07/21 10:34:16;;;;;;;2.10;0.70;;;;;;;29.65;30.28;100117.10;78897;279;3026827;-71
2023/07/21 10:37:04;;;;;;;1.40;0.80;;;;;;;29.34;30.51;100110.31;78950;279;3027290;-74
2023/07/21 10:39:44;;;;;;;4.90;0.80;;;;;;;29.03;30.93;100111.95;78913;267;3027942;-75
2023/07/21 10:42:20;;;;;;;3.00;0.80;;;;;;;29.06;31.59;100111.40;78896;279;3027068;-75
2023/07/21 10:44:57;;;;;;;3.50;0.80;;;;;;;29.22;31.14;100107.01;78923;279;3027728;-71
2023/07/21 10:47:33;;;;;;;2.00;0.90;;;;;;;29.36;30.69;100104.54;78894;279;3027650;-71
2023/07/21 10:50:11;;;;;;;1.80;0.80;;;;;;;29.46;30.63;100101.36;78889;279;3027123;-72
2023/07/21 10:52:49;;;;;;;1.60;0.80;;;;;;;29.56;30.97;100100.94;78924;279;3027714;-72
2023/07/21 10:55:25;;;;;;;2.00;0.90;;;;;;;29.64;30.30;100097.13;78900;279;3026590;-75
2023/07/21 10:58:01;;;;;;;3.10;0.90;;;;;;;29.70;29.95;100097.25;78933;279;3026950;-75
2023/07/21 11:00:48;;;;;;;1.10;0.80;;;;;;;29.77;30.04;100090.66;78926;279;3028359;-72
2023/07/21 11:03:23;;;;;;;0.90;0.80;;;;;;;29.85;30.15;100088.64;78916;279;3028238;-71
2023/07/21 11:06:00;;;;;;;1.10;0.80;;;;;;;29.89;29.95;100096.09;79629;271;3011559;-75
2023/07/21 11:08:36;;;;;;;2.70;0.80;;;;;;;29.52;28.77;100101.82;78814;279;3027029;-75
2023/07/21 11:11:12;;;;;;;1.40;0.80;;;;;;;29.06;29.69;100099.50;78825;279;3028087;-71
2023/07/21 11:13:48;;;;;;;2.90;1.00;;;;;;;28.72;30.09;100103.35;78841;279;3027150;-71
2023/07/21 11:16:24;;;;;;;0.90;0.70;;;;;;;28.55;30.46;100098.76;79623;279;3011522;-71
2023/07/21 11:19:00;;;;;;;2.10;0.80;;;;;;;28.52;31.28;100091.91;79585;279;3013454;-71
2023/07/21 11:21:36;;;;;;;1.10;0.80;;;;;;;28.54;31.61;100089.14;78864;279;3027864;-75
2023/07/21 11:24:12;;;;;;;1.50;0.80;;;;;;;28.33;31.54;100092.52;78877;279;3028149;-74
2023/07/21 11:26:49;;;;;;;0.90;0.80;;;;;;;28.03;31.33;100087.61;78840;279;3028105;-73
2023/07/21 11:29:26;;;;;;;1.20;1.00;;;;;;;27.67;31.17;100088.58;78821;279;3028066;-75
2023/07/21 11:32:03;;;;;;;1.50;0.80;;;;;;;27.35;32.38;100088.59;78910;279;3027374;-71
2023/07/21 11:34:40;;;;;;;1.00;0.70;;;;;;;27.10;32.32;100084.64;78848;279;3027074;-71
2023/07/21 11:37:17;;;;;;;1.10;0.70;;;;;;;26.83;32.45;100084.20;78858;279;3027644;-73
2023/07/21 11:39:59;;;;;;;3.20;0.90;;;;;;;26.63;32.63;100083.73;78826;279;3026867;-74
2023/07/21 11:42:47;;;;;;;1.90;1.00;;;;;;;26.61;33.44;100081.04;78833;279;3029050;-75
2023/07/21 11:45:37;;;;;;;2.10;0.90;;;;;;;26.83;33.56;100078.43;78901;279;3028262;-77
2023/07/21 11:48:19;;;;;;;2.40;0.90;;;;;;;26.85;32.57;100077.89;78864;280;3027166;-77
2023/07/21 11:50:57;;;;;;;3.60;0.80;;;;;;;26.76;32.49;100077.41;78883;279;3026649;-77
2023/07/21 11:53:47;;;;;;;1.30;0.80;;;;;;;26.65;33.50;100081.01;78858;279;3027657;-77
2023/07/21 11:56:23;;;;;;;1.70;0.70;;;;;;;26.49;33.61;100086.31;78875;279;3027739;-77
2023/07/21 11:58:59;;;;;;;2.70;0.70;;;;;;;26.39;33.41;100087.70;79616;279;3011565;-77
2023/07/21 12:01:36;;;;;;;1.20;0.90;;;;;;;26.30;34.01;100086.02;78909;279;3028426;-73